sensor_id;sensor_type;location;lat;lon;timestamp;temperature;humidity
7516;DHT22;3799;47.184;8.538;2024-02-15T00:01:35;7.80;99.90
7516;DHT22;3799;47.184;8.538;2024-02-15T00:04:03;7.60;99.90
7516;DHT22;3799;47.184;8.538;2024-02-15T00:06:33;7.70;99.90
7516;DHT22;3799;47.184;8.538;2024-02-15T00:09:00;7.90;99.90
7516;DHT22;3799;47.184;8.538;2024-02-15T00:11:28;7.70;99.90
7516;DHT22;3799;47.184;8.538;2024-02-15T00:13:57;7.70;99.90
7516;DHT22;3799;47.184;8.538;2024-02-15T00:16:25;7.70;99.90
7516;DHT22;3799;47.184;8.538;2024-02-15T00:18:56;7.60;99.90
7516;DHT22;3799;47.184;8.538;2024-02-15T00:21:33;7.70;99.90
7516;DHT22;3799;47.184;8.538;2024-02-15T00:24:09;7.60;99.90
7516;DHT22;3799;47.184;8.538;2024-02-15T00:26:41;7.40;99.90
7516;DHT22;3799;47.184;8.538;2024-02-15T00:29:10;7.70;99.90
7516;DHT22;3799;47.184;8.538;2024-02-15T00:31:39;7.60;99.90
7516;DHT22;3799;47.184;8.538;2024-02-15T00:34:07;7.40;99.90
7516;DHT22;3799;47.184;8.538;2024-02-15T00:36:36;7.50;99.90
7516;DHT22;3799;47.184;8.538;2024-02-15T00:39:10;7.60;99.90
7516;DHT22;3799;47.184;8.538;2024-02-15T00:41:41;7.60;99.90
7516;DHT22;3799;47.184;8.538;2024-02-15T00:44:25;7.30;99.90
7516;DHT22;3799;47.184;8.538;2024-02-15T00:47:04;7.30;99.90
7516;DHT22;3799;47.184;8.538;2024-02-15T00:49:38;7.20;99.90
7516;DHT22;3799;47.184;8.538;2024-02-15T00:52:06;7.40;99.90
7516;DHT22;3799;47.184;8.538;2024-02-15T00:54:36;7.20;99.90
7516;DHT22;3799;47.184;8.538;2024-02-15T00:57:04;7.40;99.90
7516;DHT22;3799;47.184;8.538;2024-02-15T00:59:31;7.30;99.90
7516;DHT22;3799;47.184;8.538;2024-02-15T01:02:02;7.10;99.90
7516;DHT22;3799;47.184;8.538;2024-02-15T01:04:29;7.20;99.90
7516;DHT22;3799;47.184;8.538;2024-02-15T01:06:58;7.30;99.90
7516;DHT22;3799;47.184;8.538;2024-02-15T01:09:27;7.10;99.90
7516;DHT22;3799;47.184;8.538;2024-02-15T01:11:54;7.20;99.90
7516;DHT22;3799;47.184;8.538;2024-02-15T01:14:24;7.10;99.90
7516;DHT22;3799;47.184;8.538;2024-02-15T01:16:55;7.30;99.90
7516;DHT22;3799;47.184;8.538;2024-02-15T01:19:22;7.40;99.90
7516;DHT22;3799;47.184;8.538;2024-02-15T01:21:50;7.40;99.90
7516;DHT22;3799;47.184;8.538;2024-02-15T01:24:18;7.20;99.90
7516;DHT22;3799;47.184;8.538;2024-02-15T01:26:45;7.20;99.90
7516;DHT22;3799;47.184;8.538;2024-02-15T01:29:15;7.30;99.90
7516;DHT22;3799;47.184;8.538;2024-02-15T01:31:42;7.20;99.90
7516;DHT22;3799;47.184;8.538;2024-02-15T01:34:10;7.00;99.90
7516;DHT22;3799;47.184;8.538;2024-02-15T01:36:47;6.90;99.90
7516;DHT22;3799;47.184;8.538;2024-02-15T01:39:27;7.10;99.90
7516;DHT22;3799;47.184;8.538;2024-02-15T01:42:01;6.90;99.90
7516;DHT22;3799;47.184;8.538;2024-02-15T01:44:41;7.10;99.90
7516;DHT22;3799;47.184;8.538;2024-02-15T01:47:11;6.80;99.90
7516;DHT22;3799;47.184;8.538;2024-02-15T01:49:41;7.10;99.90
7516;DHT22;3799;47.184;8.538;2024-02-15T01:52:09;6.70;99.90
7516;DHT22;3799;47.184;8.538;2024-02-15T01:54:38;7.00;99.90
7516;DHT22;3799;47.184;8.538;2024-02-15T01:57:06;6.90;99.90
7516;DHT22;3799;47.184;8.538;2024-02-15T01:59:38;6.90;99.90
7516;DHT22;3799;47.184;8.538;2024-02-15T02:02:08;6.90;99.90
7516;DHT22;3799;47.184;8.538;2024-02-15T02:04:41;7.00;99.90
7516;DHT22;3799;47.184;8.538;2024-02-15T02:07:09;6.70;99.90
7516;DHT22;3799;47.184;8.538;2024-02-15T02:09:36;6.90;99.90
7516;DHT22;3799;47.184;8.538;2024-02-15T02:12:07;6.90;99.90
7516;DHT22;3799;47.184;8.538;2024-02-15T02:14:37;6.70;99.90
7516;DHT22;3799;47.184;8.538;2024-02-15T02:17:14;6.70;99.90
7516;DHT22;3799;47.184;8.538;2024-02-15T02:19:42;6.60;99.90
7516;DHT22;3799;47.184;8.538;2024-02-15T02:22:11;6.80;99.90
7516;DHT22;3799;47.184;8.538;2024-02-15T02:25:05;6.50;99.90
7516;DHT22;3799;47.184;8.538;2024-02-15T02:27:36;6.70;99.90
7516;DHT22;3799;47.184;8.538;2024-02-15T02:30:04;6.60;99.90
7516;DHT22;3799;47.184;8.538;2024-02-15T02:32:36;6.80;99.90
7516;DHT22;3799;47.184;8.538;2024-02-15T02:35:07;6.40;99.90
7516;DHT22;3799;47.184;8.538;2024-02-15T02:37:34;6.80;99.90
7516;DHT22;3799;47.184;8.538;2024-02-15T02:40:05;6.60;99.90
7516;DHT22;3799;47.184;8.538;2024-02-15T02:42:52;6.90;99.90
7516;DHT22;3799;47.184;8.538;2024-02-15T02:45:28;6.50;99.90
7516;DHT22;3799;47.184;8.538;2024-02-15T02:47:56;6.60;99.90
7516;DHT22;3799;47.184;8.538;2024-02-15T02:50:29;6.70;99.90
7516;DHT22;3799;47.184;8.538;2024-02-15T02:52:59;6.50;99.90
7516;DHT22;3799;47.184;8.538;2024-02-15T02:55:29;6.90;99.90
7516;DHT22;3799;47.184;8.538;2024-02-15T02:57:58;6.50;99.90
7516;DHT22;3799;47.184;8.538;2024-02-15T03:00:25;6.70;99.90
7516;DHT22;3799;47.184;8.538;2024-02-15T03:02:55;6.40;99.90
7516;DHT22;3799;47.184;8.538;2024-02-15T03:05:27;6.50;99.90
7516;DHT22;3799;47.184;8.538;2024-02-15T03:07:54;6.50;99.90
7516;DHT22;3799;47.184;8.538;2024-02-15T03:10:26;6.50;99.90
7516;DHT22;3799;47.184;8.538;2024-02-15T03:12:55;6.70;99.90
7516;DHT22;3799;47.184;8.538;2024-02-15T03:15:22;6.70;99.90
7516;DHT22;3799;47.184;8.538;2024-02-15T03:17:59;6.60;99.90
7516;DHT22;3799;47.184;8.538;2024-02-15T03:20:26;6.70;99.90
7516;DHT22;3799;47.184;8.538;2024-02-15T03:23:02;6.70;99.90
7516;DHT22;3799;47.184;8.538;2024-02-15T03:25:32;6.50;99.90
7516;DHT22;3799;47.184;8.538;2024-02-15T03:28:07;6.70;99.90
7516;DHT22;3799;47.184;8.538;2024-02-15T03:30:34;6.70;99.90
7516;DHT22;3799;47.184;8.538;2024-02-15T03:33:02;6.70;99.90
7516;DHT22;3799;47.184;8.538;2024-02-15T03:35:34;6.70;99.90
7516;DHT22;3799;47.184;8.538;2024-02-15T03:38:05;6.80;99.90
7516;DHT22;3799;47.184;8.538;2024-02-15T03:40:36;6.70;99.90
7516;DHT22;3799;47.184;8.538;2024-02-15T03:43:04;6.60;99.90
7516;DHT22;3799;47.184;8.538;2024-02-15T03:45:35;6.60;99.90
7516;DHT22;3799;47.184;8.538;2024-02-15T03:48:05;6.50;99.90
7516;DHT22;3799;47.184;8.538;2024-02-15T03:50:34;6.50;99.90
7516;DHT22;3799;47.184;8.538;2024-02-15T03:53:05;6.40;99.90
7516;DHT22;3799;47.184;8.538;2024-02-15T03:55:38;6.60;99.90
7516;DHT22;3799;47.184;8.538;2024-02-15T03:58:09;6.20;99.90
7516;DHT22;3799;47.184;8.538;2024-02-15T04:00:37;6.30;99.90
7516;DHT22;3799;47.184;8.538;2024-02-15T04:03:07;6.10;99.90
7516;DHT22;3799;47.184;8.538;2024-02-15T04:05:39;6.20;99.90
7516;DHT22;3799;47.184;8.538;2024-02-15T04:08:07;6.20;99.90
7516;DHT22;3799;47.184;8.538;2024-02-15T04:10:34;6.40;99.90
7516;DHT22;3799;47.184;8.538;2024-02-15T04:13:02;6.10;99.90
7516;DHT22;3799;47.184;8.538;2024-02-15T04:15:31;6.20;99.90
7516;DHT22;3799;47.184;8.538;2024-02-15T04:18:03;6.20;99.90
7516;DHT22;3799;47.184;8.538;2024-02-15T04:20:34;6.00;99.90
7516;DHT22;3799;47.184;8.538;2024-02-15T04:23:02;6.20;99.90
7516;DHT22;3799;47.184;8.538;2024-02-15T04:25:31;6.30;99.90
7516;DHT22;3799;47.184;8.538;2024-02-15T04:28:06;6.20;99.90
7516;DHT22;3799;47.184;8.538;2024-02-15T04:30:49;6.00;99.90
7516;DHT22;3799;47.184;8.538;2024-02-15T04:33:23;6.00;99.90
7516;DHT22;3799;47.184;8.538;2024-02-15T04:35:55;6.00;99.90
7516;DHT22;3799;47.184;8.538;2024-02-15T04:38:22;6.10;99.90
7516;DHT22;3799;47.184;8.538;2024-02-15T04:40:56;6.00;99.90
7516;DHT22;3799;47.184;8.538;2024-02-15T04:43:27;6.30;99.90
7516;DHT22;3799;47.184;8.538;2024-02-15T04:45:58;6.40;99.90
7516;DHT22;3799;47.184;8.538;2024-02-15T04:48:27;6.10;99.90
7516;DHT22;3799;47.184;8.538;2024-02-15T04:50:57;6.00;99.90
7516;DHT22;3799;47.184;8.538;2024-02-15T04:53:33;5.90;99.90
7516;DHT22;3799;47.184;8.538;2024-02-15T04:56:00;6.10;99.90
7516;DHT22;3799;47.184;8.538;2024-02-15T04:58:33;6.10;99.90
7516;DHT22;3799;47.184;8.538;2024-02-15T05:01:06;6.20;99.90
7516;DHT22;3799;47.184;8.538;2024-02-15T05:03:34;5.70;99.90
7516;DHT22;3799;47.184;8.538;2024-02-15T05:06:02;5.90;99.90
7516;DHT22;3799;47.184;8.538;2024-02-15T05:08:32;5.90;99.90
7516;DHT22;3799;47.184;8.538;2024-02-15T05:11:05;6.00;99.90
7516;DHT22;3799;47.184;8.538;2024-02-15T05:13:33;5.90;99.90
7516;DHT22;3799;47.184;8.538;2024-02-15T05:16:00;6.00;99.90
7516;DHT22;3799;47.184;8.538;2024-02-15T05:18:29;6.20;99.90
7516;DHT22;3799;47.184;8.538;2024-02-15T05:21:04;5.90;99.90
7516;DHT22;3799;47.184;8.538;2024-02-15T05:23:34;6.00;99.90
7516;DHT22;3799;47.184;8.538;2024-02-15T05:26:03;6.10;99.90
7516;DHT22;3799;47.184;8.538;2024-02-15T05:28:33;6.10;99.90
7516;DHT22;3799;47.184;8.538;2024-02-15T05:31:15;6.10;99.90
7516;DHT22;3799;47.184;8.538;2024-02-15T05:33:44;6.20;99.90
7516;DHT22;3799;47.184;8.538;2024-02-15T05:36:17;6.00;99.90
7516;DHT22;3799;47.184;8.538;2024-02-15T05:38:50;6.00;99.90
7516;DHT22;3799;47.184;8.538;2024-02-15T05:41:19;6.00;99.90
7516;DHT22;3799;47.184;8.538;2024-02-15T05:43:51;6.00;99.90
7516;DHT22;3799;47.184;8.538;2024-02-15T05:46:21;5.90;99.90
7516;DHT22;3799;47.184;8.538;2024-02-15T05:48:49;6.00;99.90
7516;DHT22;3799;47.184;8.538;2024-02-15T05:51:17;5.90;99.90
7516;DHT22;3799;47.184;8.538;2024-02-15T05:53:45;6.00;99.90
7516;DHT22;3799;47.184;8.538;2024-02-15T05:56:14;5.90;99.90
7516;DHT22;3799;47.184;8.538;2024-02-15T05:58:50;5.80;99.90
7516;DHT22;3799;47.184;8.538;2024-02-15T06:01:17;5.90;99.90
7516;DHT22;3799;47.184;8.538;2024-02-15T06:03:51;5.70;99.90
7516;DHT22;3799;47.184;8.538;2024-02-15T06:06:23;5.80;99.90
7516;DHT22;3799;47.184;8.538;2024-02-15T06:09:01;5.70;99.90
7516;DHT22;3799;47.184;8.538;2024-02-15T06:11:56;5.60;99.90
7516;DHT22;3799;47.184;8.538;2024-02-15T06:14:34;5.30;99.90
7516;DHT22;3799;47.184;8.538;2024-02-15T06:17:04;5.50;99.90
7516;DHT22;3799;47.184;8.538;2024-02-15T06:19:36;5.60;99.90
7516;DHT22;3799;47.184;8.538;2024-02-15T06:22:04;5.60;99.90
7516;DHT22;3799;47.184;8.538;2024-02-15T06:24:33;5.50;99.90
7516;DHT22;3799;47.184;8.538;2024-02-15T06:27:03;5.40;99.90
7516;DHT22;3799;47.184;8.538;2024-02-15T06:29:34;5.40;99.90
7516;DHT22;3799;47.184;8.538;2024-02-15T06:32:32;5.40;99.90
7516;DHT22;3799;47.184;8.538;2024-02-15T06:35:18;5.80;99.90
7516;DHT22;3799;47.184;8.538;2024-02-15T06:38:05;5.60;99.90
7516;DHT22;3799;47.184;8.538;2024-02-15T06:40:52;5.80;99.90
7516;DHT22;3799;47.184;8.538;2024-02-15T06:43:25;5.60;99.90
7516;DHT22;3799;47.184;8.538;2024-02-15T06:45:55;5.70;99.90
7516;DHT22;3799;47.184;8.538;2024-02-15T06:48:30;5.50;99.90
7516;DHT22;3799;47.184;8.538;2024-02-15T06:51:00;5.40;99.90
7516;DHT22;3799;47.184;8.538;2024-02-15T06:53:35;5.40;99.90
7516;DHT22;3799;47.184;8.538;2024-02-15T06:56:03;5.50;99.90
7516;DHT22;3799;47.184;8.538;2024-02-15T06:58:40;5.40;99.90
7516;DHT22;3799;47.184;8.538;2024-02-15T07:01:12;5.60;99.90
7516;DHT22;3799;47.184;8.538;2024-02-15T07:03:41;5.70;99.90
7516;DHT22;3799;47.184;8.538;2024-02-15T07:06:08;5.70;99.90
7516;DHT22;3799;47.184;8.538;2024-02-15T07:08:36;5.70;99.90
7516;DHT22;3799;47.184;8.538;2024-02-15T07:11:03;5.90;99.90
7516;DHT22;3799;47.184;8.538;2024-02-15T07:13:31;5.90;99.90
7516;DHT22;3799;47.184;8.538;2024-02-15T07:15:59;6.10;99.90
7516;DHT22;3799;47.184;8.538;2024-02-15T07:18:28;6.00;99.90
7516;DHT22;3799;47.184;8.538;2024-02-15T07:20:56;6.10;99.90
7516;DHT22;3799;47.184;8.538;2024-02-15T07:23:31;6.10;99.90
7516;DHT22;3799;47.184;8.538;2024-02-15T07:26:04;6.00;99.90
7516;DHT22;3799;47.184;8.538;2024-02-15T07:28:35;6.40;99.90
7516;DHT22;3799;47.184;8.538;2024-02-15T07:31:02;6.20;99.90
7516;DHT22;3799;47.184;8.538;2024-02-15T07:33:29;6.30;99.90
7516;DHT22;3799;47.184;8.538;2024-02-15T07:35:57;6.40;99.90
7516;DHT22;3799;47.184;8.538;2024-02-15T07:38:25;6.30;99.90
7516;DHT22;3799;47.184;8.538;2024-02-15T07:40:53;6.50;99.90
7516;DHT22;3799;47.184;8.538;2024-02-15T07:43:20;6.90;99.90
7516;DHT22;3799;47.184;8.538;2024-02-15T07:45:48;7.00;99.90
7516;DHT22;3799;47.184;8.538;2024-02-15T07:48:16;7.00;99.90
7516;DHT22;3799;47.184;8.538;2024-02-15T07:50:45;7.20;99.90
7516;DHT22;3799;47.184;8.538;2024-02-15T07:53:15;7.30;99.90
7516;DHT22;3799;47.184;8.538;2024-02-15T07:55:43;7.40;99.90
7516;DHT22;3799;47.184;8.538;2024-02-15T07:58:12;7.40;99.90
7516;DHT22;3799;47.184;8.538;2024-02-15T08:00:40;7.40;99.90
7516;DHT22;3799;47.184;8.538;2024-02-15T08:03:08;7.60;99.90
7516;DHT22;3799;47.184;8.538;2024-02-15T08:05:36;7.70;99.90
7516;DHT22;3799;47.184;8.538;2024-02-15T08:08:05;7.90;99.90
7516;DHT22;3799;47.184;8.538;2024-02-15T08:10:33;7.90;99.90
7516;DHT22;3799;47.184;8.538;2024-02-15T08:13:01;7.60;99.90
7516;DHT22;3799;47.184;8.538;2024-02-15T08:15:32;7.80;99.90
7516;DHT22;3799;47.184;8.538;2024-02-15T08:18:02;7.70;99.90
7516;DHT22;3799;47.184;8.538;2024-02-15T08:20:33;7.90;99.90
7516;DHT22;3799;47.184;8.538;2024-02-15T08:23:01;7.80;99.90
7516;DHT22;3799;47.184;8.538;2024-02-15T08:25:32;8.00;99.90
7516;DHT22;3799;47.184;8.538;2024-02-15T08:28:02;7.90;99.90
7516;DHT22;3799;47.184;8.538;2024-02-15T08:30:32;8.00;99.90
7516;DHT22;3799;47.184;8.538;2024-02-15T08:33:00;8.30;99.90
7516;DHT22;3799;47.184;8.538;2024-02-15T08:35:28;8.10;99.90
7516;DHT22;3799;47.184;8.538;2024-02-15T08:37:56;8.10;99.90
7516;DHT22;3799;47.184;8.538;2024-02-15T08:40:26;8.40;99.90
7516;DHT22;3799;47.184;8.538;2024-02-15T08:42:58;8.60;99.90
7516;DHT22;3799;47.184;8.538;2024-02-15T08:45:26;8.40;99.90
7516;DHT22;3799;47.184;8.538;2024-02-15T08:47:54;8.60;99.90
7516;DHT22;3799;47.184;8.538;2024-02-15T08:50:22;8.30;99.90
7516;DHT22;3799;47.184;8.538;2024-02-15T08:52:51;8.60;99.90
7516;DHT22;3799;47.184;8.538;2024-02-15T08:55:20;8.90;99.90
7516;DHT22;3799;47.184;8.538;2024-02-15T08:57:54;8.60;99.90
7516;DHT22;3799;47.184;8.538;2024-02-15T09:00:25;8.80;99.90
7516;DHT22;3799;47.184;8.538;2024-02-15T09:02:54;8.80;99.90
7516;DHT22;3799;47.184;8.538;2024-02-15T09:05:24;8.90;99.90
7516;DHT22;3799;47.184;8.538;2024-02-15T09:07:56;9.00;99.90
7516;DHT22;3799;47.184;8.538;2024-02-15T09:10:25;9.20;99.90
7516;DHT22;3799;47.184;8.538;2024-02-15T09:12:54;9.30;99.90
7516;DHT22;3799;47.184;8.538;2024-02-15T09:15:25;9.50;99.90
7516;DHT22;3799;47.184;8.538;2024-02-15T09:17:53;9.60;99.90
7516;DHT22;3799;47.184;8.538;2024-02-15T09:20:22;9.60;99.90
7516;DHT22;3799;47.184;8.538;2024-02-15T09:22:54;9.80;99.90
7516;DHT22;3799;47.184;8.538;2024-02-15T09:25:23;10.10;99.90
7516;DHT22;3799;47.184;8.538;2024-02-15T09:27:52;10.10;99.90
7516;DHT22;3799;47.184;8.538;2024-02-15T09:30:25;10.10;99.90
7516;DHT22;3799;47.184;8.538;2024-02-15T09:32:55;10.10;99.90
7516;DHT22;3799;47.184;8.538;2024-02-15T09:35:24;10.20;99.90
7516;DHT22;3799;47.184;8.538;2024-02-15T09:37:52;10.50;99.90
7516;DHT22;3799;47.184;8.538;2024-02-15T09:40:23;10.60;99.90
7516;DHT22;3799;47.184;8.538;2024-02-15T09:42:54;10.40;99.90
7516;DHT22;3799;47.184;8.538;2024-02-15T09:45:22;10.60;99.90
7516;DHT22;3799;47.184;8.538;2024-02-15T09:48:00;10.60;99.90
7516;DHT22;3799;47.184;8.538;2024-02-15T09:50:35;10.90;99.90
7516;DHT22;3799;47.184;8.538;2024-02-15T09:53:10;10.80;99.90
7516;DHT22;3799;47.184;8.538;2024-02-15T09:55:44;10.80;99.60
7516;DHT22;3799;47.184;8.538;2024-02-15T09:58:13;10.70;99.60
7516;DHT22;3799;47.184;8.538;2024-02-15T10:00:42;10.90;99.70
7516;DHT22;3799;47.184;8.538;2024-02-15T10:03:16;11.00;99.60
7516;DHT22;3799;47.184;8.538;2024-02-15T10:05:48;10.90;99.60
7516;DHT22;3799;47.184;8.538;2024-02-15T10:08:16;10.70;99.50
7516;DHT22;3799;47.184;8.538;2024-02-15T10:10:47;10.90;99.50
7516;DHT22;3799;47.184;8.538;2024-02-15T10:13:15;11.00;99.40
7516;DHT22;3799;47.184;8.538;2024-02-15T10:15:50;10.90;98.90
7516;DHT22;3799;47.184;8.538;2024-02-15T10:18:20;11.30;99.10
7516;DHT22;3799;47.184;8.538;2024-02-15T10:20:59;11.10;98.90
7516;DHT22;3799;47.184;8.538;2024-02-15T10:23:27;11.10;98.60
7516;DHT22;3799;47.184;8.538;2024-02-15T10:25:55;11.20;98.60
7516;DHT22;3799;47.184;8.538;2024-02-15T10:28:23;11.30;98.50
7516;DHT22;3799;47.184;8.538;2024-02-15T10:30:53;11.40;98.70
7516;DHT22;3799;47.184;8.538;2024-02-15T10:33:29;11.40;98.20
7516;DHT22;3799;47.184;8.538;2024-02-15T10:36:08;11.30;97.80
7516;DHT22;3799;47.184;8.538;2024-02-15T10:38:39;11.60;97.70
7516;DHT22;3799;47.184;8.538;2024-02-15T10:41:07;11.70;97.20
7516;DHT22;3799;47.184;8.538;2024-02-15T10:43:39;11.70;97.10
7516;DHT22;3799;47.184;8.538;2024-02-15T10:46:12;11.80;96.80
7516;DHT22;3799;47.184;8.538;2024-02-15T10:48:40;11.70;96.60
7516;DHT22;3799;47.184;8.538;2024-02-15T10:51:14;11.90;96.40
7516;DHT22;3799;47.184;8.538;2024-02-15T10:53:47;11.80;95.50
7516;DHT22;3799;47.184;8.538;2024-02-15T10:56:18;12.20;95.10
7516;DHT22;3799;47.184;8.538;2024-02-15T10:58:53;12.40;94.70
7516;DHT22;3799;47.184;8.538;2024-02-15T11:01:27;12.40;94.70
7516;DHT22;3799;47.184;8.538;2024-02-15T11:04:00;12.50;93.90
7516;DHT22;3799;47.184;8.538;2024-02-15T11:06:43;12.80;93.50
7516;DHT22;3799;47.184;8.538;2024-02-15T11:09:12;12.50;92.20
7516;DHT22;3799;47.184;8.538;2024-02-15T11:11:41;12.70;91.70
7516;DHT22;3799;47.184;8.538;2024-02-15T11:14:28;12.60;91.60
7516;DHT22;3799;47.184;8.538;2024-02-15T11:16:59;12.90;91.20
7516;DHT22;3799;47.184;8.538;2024-02-15T11:22:08;13.10;91.10
7516;DHT22;3799;47.184;8.538;2024-02-15T11:24:49;13.30;90.80
7516;DHT22;3799;47.184;8.538;2024-02-15T11:27:31;13.40;90.30
7516;DHT22;3799;47.184;8.538;2024-02-15T11:30:00;13.40;88.80
7516;DHT22;3799;47.184;8.538;2024-02-15T11:35:20;13.80;85.70
7516;DHT22;3799;47.184;8.538;2024-02-15T11:37:56;13.70;82.90
7516;DHT22;3799;47.184;8.538;2024-02-15T11:42:57;14.10;79.90
7516;DHT22;3799;47.184;8.538;2024-02-15T11:45:29;14.10;78.00
7516;DHT22;3799;47.184;8.538;2024-02-15T11:48:13;14.50;76.80
7516;DHT22;3799;47.184;8.538;2024-02-15T11:50:41;14.30;74.80
7516;DHT22;3799;47.184;8.538;2024-02-15T11:53:09;14.30;73.50
7516;DHT22;3799;47.184;8.538;2024-02-15T11:55:39;14.70;73.30
7516;DHT22;3799;47.184;8.538;2024-02-15T11:58:09;14.60;71.40
7516;DHT22;3799;47.184;8.538;2024-02-15T12:00:38;14.70;70.10
7516;DHT22;3799;47.184;8.538;2024-02-15T12:03:25;14.80;68.30
7516;DHT22;3799;47.184;8.538;2024-02-15T12:06:30;15.00;66.80
7516;DHT22;3799;47.184;8.538;2024-02-15T12:09:18;15.20;63.00
7516;DHT22;3799;47.184;8.538;2024-02-15T12:12:06;15.20;60.20
7516;DHT22;3799;47.184;8.538;2024-02-15T12:15:01;15.50;58.80
7516;DHT22;3799;47.184;8.538;2024-02-15T12:17:47;15.30;58.20
7516;DHT22;3799;47.184;8.538;2024-02-15T12:20:34;15.40;58.20
7516;DHT22;3799;47.184;8.538;2024-02-15T12:23:02;15.60;58.20
7516;DHT22;3799;47.184;8.538;2024-02-15T12:25:30;15.30;57.60
7516;DHT22;3799;47.184;8.538;2024-02-15T12:28:01;15.60;57.50
7516;DHT22;3799;47.184;8.538;2024-02-15T12:30:34;15.50;57.40
7516;DHT22;3799;47.184;8.538;2024-02-15T12:33:12;16.10;57.80
7516;DHT22;3799;47.184;8.538;2024-02-15T12:35:40;15.90;57.30
7516;DHT22;3799;47.184;8.538;2024-02-15T12:38:12;16.10;57.10
7516;DHT22;3799;47.184;8.538;2024-02-15T12:40:45;16.20;56.70
7516;DHT22;3799;47.184;8.538;2024-02-15T12:43:15;16.10;56.10
7516;DHT22;3799;47.184;8.538;2024-02-15T12:45:43;16.40;56.10
7516;DHT22;3799;47.184;8.538;2024-02-15T12:48:11;16.40;56.00
7516;DHT22;3799;47.184;8.538;2024-02-15T12:50:39;16.60;55.50
7516;DHT22;3799;47.184;8.538;2024-02-15T12:53:07;16.70;55.50
7516;DHT22;3799;47.184;8.538;2024-02-15T12:55:36;16.50;55.40
7516;DHT22;3799;47.184;8.538;2024-02-15T12:58:12;16.60;55.30
7516;DHT22;3799;47.184;8.538;2024-02-15T13:00:41;16.20;54.50
7516;DHT22;3799;47.184;8.538;2024-02-15T13:03:09;16.20;54.40
7516;DHT22;3799;47.184;8.538;2024-02-15T13:05:43;16.00;54.20
7516;DHT22;3799;47.184;8.538;2024-02-15T13:08:11;16.00;54.20
7516;DHT22;3799;47.184;8.538;2024-02-15T13:10:42;15.80;54.20
7516;DHT22;3799;47.184;8.538;2024-02-15T13:13:10;15.50;54.10
7516;DHT22;3799;47.184;8.538;2024-02-15T13:15:37;15.20;54.30
7516;DHT22;3799;47.184;8.538;2024-02-15T13:18:08;14.90;55.80
7516;DHT22;3799;47.184;8.538;2024-02-15T13:20:41;14.80;56.60
7516;DHT22;3799;47.184;8.538;2024-02-15T13:23:10;14.50;57.30
7516;DHT22;3799;47.184;8.538;2024-02-15T13:25:50;14.30;57.60
7516;DHT22;3799;47.184;8.538;2024-02-15T13:28:19;14.30;57.60
7516;DHT22;3799;47.184;8.538;2024-02-15T13:30:47;14.40;57.20
7516;DHT22;3799;47.184;8.538;2024-02-15T13:33:19;14.50;56.30
7516;DHT22;3799;47.184;8.538;2024-02-15T13:35:47;14.30;56.00
7516;DHT22;3799;47.184;8.538;2024-02-15T13:38:17;14.30;56.00
7516;DHT22;3799;47.184;8.538;2024-02-15T13:40:51;14.60;56.30
7516;DHT22;3799;47.184;8.538;2024-02-15T13:43:22;14.40;56.10
7516;DHT22;3799;47.184;8.538;2024-02-15T13:45:49;14.50;56.40
7516;DHT22;3799;47.184;8.538;2024-02-15T13:48:16;14.50;56.60
7516;DHT22;3799;47.184;8.538;2024-02-15T13:50:44;14.70;56.50
7516;DHT22;3799;47.184;8.538;2024-02-15T13:53:15;14.30;56.00
7516;DHT22;3799;47.184;8.538;2024-02-15T13:55:43;14.60;56.10
7516;DHT22;3799;47.184;8.538;2024-02-15T13:58:10;14.50;56.20
7516;DHT22;3799;47.184;8.538;2024-02-15T14:00:41;14.60;56.00
7516;DHT22;3799;47.184;8.538;2024-02-15T14:03:12;14.20;55.60
7516;DHT22;3799;47.184;8.538;2024-02-15T14:05:43;14.40;55.80
7516;DHT22;3799;47.184;8.538;2024-02-15T14:08:15;14.10;55.80
7516;DHT22;3799;47.184;8.538;2024-02-15T14:10:45;14.30;56.30
7516;DHT22;3799;47.184;8.538;2024-02-15T14:13:13;13.90;56.40
7516;DHT22;3799;47.184;8.538;2024-02-15T14:15:41;13.90;56.60
7516;DHT22;3799;47.184;8.538;2024-02-15T14:18:11;13.90;59.80
7516;DHT22;3799;47.184;8.538;2024-02-15T14:20:42;13.90;62.10
7516;DHT22;3799;47.184;8.538;2024-02-15T14:23:10;13.80;58.80
7516;DHT22;3799;47.184;8.538;2024-02-15T14:25:44;14.00;58.00
7516;DHT22;3799;47.184;8.538;2024-02-15T14:28:13;13.90;57.80
7516;DHT22;3799;47.184;8.538;2024-02-15T14:30:42;13.80;58.40
7516;DHT22;3799;47.184;8.538;2024-02-15T14:33:28;13.90;59.20
7516;DHT22;3799;47.184;8.538;2024-02-15T14:36:01;13.70;59.50
7516;DHT22;3799;47.184;8.538;2024-02-15T14:38:31;13.50;59.70
7516;DHT22;3799;47.184;8.538;2024-02-15T14:41:02;13.60;59.80
7516;DHT22;3799;47.184;8.538;2024-02-15T14:43:35;13.30;59.90
7516;DHT22;3799;47.184;8.538;2024-02-15T14:46:05;13.20;60.10
7516;DHT22;3799;47.184;8.538;2024-02-15T14:48:35;13.30;60.90
7516;DHT22;3799;47.184;8.538;2024-02-15T14:51:03;13.30;61.10
7516;DHT22;3799;47.184;8.538;2024-02-15T14:53:30;13.30;61.60
7516;DHT22;3799;47.184;8.538;2024-02-15T14:56:02;13.00;61.50
7516;DHT22;3799;47.184;8.538;2024-02-15T14:58:31;13.00;61.60
7516;DHT22;3799;47.184;8.538;2024-02-15T15:00:59;12.80;62.30
7516;DHT22;3799;47.184;8.538;2024-02-15T15:03:30;12.90;63.80
7516;DHT22;3799;47.184;8.538;2024-02-15T15:06:00;12.90;64.30
7516;DHT22;3799;47.184;8.538;2024-02-15T15:08:57;13.00;65.70
7516;DHT22;3799;47.184;8.538;2024-02-15T15:11:44;12.60;65.50
7516;DHT22;3799;47.184;8.538;2024-02-15T15:14:30;12.90;65.70
7516;DHT22;3799;47.184;8.538;2024-02-15T15:16:58;12.70;65.40
7516;DHT22;3799;47.184;8.538;2024-02-15T15:19:29;12.50;65.60
7516;DHT22;3799;47.184;8.538;2024-02-15T15:21:57;12.70;65.70
7516;DHT22;3799;47.184;8.538;2024-02-15T15:24:24;12.50;66.10
7516;DHT22;3799;47.184;8.538;2024-02-15T15:26:54;12.50;66.50
7516;DHT22;3799;47.184;8.538;2024-02-15T15:29:25;12.40;66.80
7516;DHT22;3799;47.184;8.538;2024-02-15T15:31:53;12.80;68.30
7516;DHT22;3799;47.184;8.538;2024-02-15T15:34:23;12.40;68.30
7516;DHT22;3799;47.184;8.538;2024-02-15T15:36:51;12.50;69.30
7516;DHT22;3799;47.184;8.538;2024-02-15T15:39:21;12.50;70.30
7516;DHT22;3799;47.184;8.538;2024-02-15T15:41:52;12.30;71.60
7516;DHT22;3799;47.184;8.538;2024-02-15T15:44:21;12.40;73.10
7516;DHT22;3799;47.184;8.538;2024-02-15T15:46:52;12.30;74.10
7516;DHT22;3799;47.184;8.538;2024-02-15T15:49:22;12.30;75.40
7516;DHT22;3799;47.184;8.538;2024-02-15T15:51:52;12.50;78.80
7516;DHT22;3799;47.184;8.538;2024-02-15T15:54:20;12.60;81.00
7516;DHT22;3799;47.184;8.538;2024-02-15T15:56:52;12.30;81.90
7516;DHT22;3799;47.184;8.538;2024-02-15T15:59:20;12.50;84.20
7516;DHT22;3799;47.184;8.538;2024-02-15T16:01:50;12.30;86.20
7516;DHT22;3799;47.184;8.538;2024-02-15T16:04:18;12.20;89.50
7516;DHT22;3799;47.184;8.538;2024-02-15T16:06:46;12.30;91.30
7516;DHT22;3799;47.184;8.538;2024-02-15T16:09:14;12.40;92.50
7516;DHT22;3799;47.184;8.538;2024-02-15T16:11:43;12.30;93.80
7516;DHT22;3799;47.184;8.538;2024-02-15T16:14:11;12.30;94.70
7516;DHT22;3799;47.184;8.538;2024-02-15T16:16:39;12.20;95.00
7516;DHT22;3799;47.184;8.538;2024-02-15T16:19:07;12.00;95.10
7516;DHT22;3799;47.184;8.538;2024-02-15T16:21:34;12.20;95.80
7516;DHT22;3799;47.184;8.538;2024-02-15T16:24:02;12.10;96.80
7516;DHT22;3799;47.184;8.538;2024-02-15T16:26:30;11.90;97.80
7516;DHT22;3799;47.184;8.538;2024-02-15T16:28:58;12.00;98.90
7516;DHT22;3799;47.184;8.538;2024-02-15T16:31:25;11.80;99.60
7516;DHT22;3799;47.184;8.538;2024-02-15T16:33:53;12.10;99.90
7516;DHT22;3799;47.184;8.538;2024-02-15T16:36:20;11.70;99.90
7516;DHT22;3799;47.184;8.538;2024-02-15T16:38:49;11.90;99.90
7516;DHT22;3799;47.184;8.538;2024-02-15T16:41:17;11.40;99.90
7516;DHT22;3799;47.184;8.538;2024-02-15T16:43:45;11.60;99.90